Aérodrome :
LOGIN :

S'inscrire | Disclaimer

   EN    FR    IT 

 










Légende :    VFR   VFR Marginal   IFR   IFR Intensif   IFR Très Intensif
Visi : 
Plafond : 
>= 8 km
>= 3000ft
5 à 8 km
1000 à 3000 ft
1500m à 5 km
500 à 1000 ft
800 à 1500m
200 à 500 ft
< 800m
< 200 ft
Symboles :   Orages  Brouillard  Fortes neiges  Fortes précipitations  Vent > 20 kt
SIGMETs :   Divers  Orages  Givrage  Turbulence  Onde Orograph.  Cendres Volcan.







- Altitude de l'aérodrome : 348 ft
- Code IATA : STN
- Voir les cartes d'approche


EGSS - London Stansted

DERNIER METAR :
  • 131250Z AUTO 21013KT 7000 -RA SCT007/// BKN011/// //////CB 06/06 Q0994

METARs EXPIRÉS :
  • 131220Z AUTO 21012KT 9999 -RA BKN006 06/06 Q0994
  • 131150Z AUTO 22013KT 9999 -RA BKN007 BKN036 06/05 Q0995
  • 131120Z AUTO 22013KT 9000 -RA FEW019 SCT033 BKN043 05/05 Q0996
  • 131050Z AUTO 22011KT 9000 -RA FEW041 05/04 Q0997
  • 131020Z AUTO 22011KT 9000 -RA NCD 04/04 Q0998

TAF TAF EGSS
Valide du 13 à 12h jusqu'au 14 à 18h UTC


131103Z 1312/1418 22012KT 9999 SCT025
TEMPO 1312/1316 7000 SHRA BKN009
PROB30
TEMPO 1312/1315 25015G25KT 3000 +SHRA BKN004
TEMPO 1319/1322 28020G32KT 5000 SHRA -SHRASN BKN007
PROB30
TEMPO 1319/1322 2000 +SHRA SHRASN BKN004
PROB30
TEMPO 1322/1408 28020G32KT 9000 -SHRA BKN014
PROB30
TEMPO 1416/1418 9000 -SHRA BKN014
ATIS : +44 1279 669 325
Pas de NOTAMs connus pour ce terrain.



MET'MAP, la Météo Aéronautique d'un coup d'oeil ! - Copyright ORBIFLY Décembre 2007 - Disclaimer

ORBIFLY MET'MAP TEAM :

Programmation & Développement : Alexandra Zaïnal
Conception & Développement : Baudouin d'Aumeries
Co-Programmation & Développement : Marc-Olivier Méhu
Soutien technique & logistique : Manuel Goepfert

Contact : metmap@orbifly.com




SOURCES & CREDITS :

   NOAA